Mäntsälä Airport

EFMN · Uusimaa, Finlandia

METAR pasados EFMN · Mäntsälä Airport

A continuación puedes ver los METAR de los últimos días. Selecciona un año para ver los METAR más antiguos, desde el año 2007 en adelante.

27 de mayo de 2024

Hora Código Tiempo Temp. Visibilidad Cielo nuboso Viento METAR/SPECI
20:50
V
24 °C 10 km+ - 170° 170° 9 kt METAR EFHK 271750Z 17009KT CAVOK 24/12 Q1021 NOSIG
20:20
V
24 °C 10 km+ - 160° 160° 8 kt METAR EFHK 271720Z 16008KT 130V190 CAVOK 24/13 Q1021 NOSIG
19:50
V
24 °C 10 km+ - 160° 160° 10 kt METAR EFHK 271650Z 16010KT CAVOK 24/13 Q1021 NOSIG
19:20
V
24 °C 10 km+ - 140° 140° 9 kt METAR EFHK 271620Z 14009KT CAVOK 24/13 Q1021 NOSIG
18:50
V
25 °C 10 km+ - 160° 160° 11 kt METAR EFHK 271550Z 16011KT CAVOK 25/12 Q1022 NOSIG
18:20
V
24 °C 10 km+ - 140° 140° 7 kt METAR EFHK 271520Z 14007KT 100V180 CAVOK 24/13 Q1022 NOSIG
17:50
V
23 °C 10 km+ - 140° 140° 11 kt METAR EFHK 271450Z 14011KT CAVOK 23/13 Q1022 TEMPO FEW045CB
17:20
V
23 °C 10 km+ - 130° 130° 10 kt METAR EFHK 271420Z 13010KT CAVOK 23/13 Q1022 TEMPO FEW045CB
16:50
V
24 °C 10 km+ - 170° 170° 11 kt METAR EFHK 271350Z 17011KT 140V200 CAVOK 24/14 Q1023 TEMPO TS FEW045CB
16:20
V
26 °C 10 km+ - 160° 160° 10 kt METAR EFHK 271320Z 16010KT 130V190 9999 VCSH FEW045CB 26/13 Q1022 TEMPO CAVOK
15:50
V
27 °C 10 km+ - 160° 160° 9 kt METAR EFHK 271250Z 16009KT 140V200 CAVOK 27/12 Q1023 TEMPO FEW045CB
15:20
V
27 °C 10 km+ - 160° 160° 8 kt METAR EFHK 271220Z 16008KT 100V200 CAVOK 27/11 Q1023 TEMPO FEW045CB
14:50
V
27 °C 10 km+ - 140° 140° 9 kt METAR EFHK 271150Z 14009KT CAVOK 27/13 Q1023 TEMPO FEW040TCU
14:20
V
27 °C 10 km+ - 170° 170° 9 kt METAR EFHK 271120Z 17009KT CAVOK 27/12 Q1023 TEMPO FEW040TCU
13:50
V
26 °C 10 km+ - 140° 140° 8 kt METAR EFHK 271050Z 14008KT 100V170 CAVOK 26/14 Q1024 TEMPO FEW040TCU
13:20
V
26 °C 10 km+ - 140° 140° 8 kt METAR EFHK 271020Z 14008KT 100V170 9999 FEW046 26/14 Q1024 NOSIG
12:50
V
26 °C 10 km+ - 140° 140° 7 kt METAR EFHK 270950Z 14007KT 110V180 9999 FEW043 26/15 Q1024 NOSIG
12:20
V
26 °C 10 km+ - 150° 150° 7 kt METAR EFHK 270920Z 15007KT 090V220 9999 FEW043 26/15 Q1024 NOSIG
11:50
V
25 °C 10 km+ - 150° 150° 6 kt METAR EFHK 270850Z 15006KT 090V210 CAVOK 25/15 Q1024 NOSIG
11:20
V
25 °C 10 km+ - 100° 100° 4 kt METAR EFHK 270820Z 10004KT 050V170 CAVOK 25/15 Q1024 NOSIG
10:50
V
24 °C 10 km+ - Var Var 4 kt METAR EFHK 270750Z VRB04KT CAVOK 24/15 Q1024 NOSIG
10:20
V
23 °C 10 km+ - 130° 130° 3 kt METAR EFHK 270720Z 13003KT 070V200 CAVOK 23/15 Q1024 NOSIG
09:50
V
22 °C 10 km+ - 130° 130° 4 kt METAR EFHK 270650Z 13004KT 090V180 CAVOK 22/16 Q1024 NOSIG
09:20
V
21 °C 10 km+ - 120° 120° 3 kt METAR EFHK 270620Z 12003KT 050V200 CAVOK 21/15 Q1025 NOSIG
08:50
V
20 °C 10 km+ - 130° 130° 4 kt METAR EFHK 270550Z 13004KT 070V160 CAVOK 20/15 Q1025 NOSIG
08:20
V
19 °C 10 km+ - 100° 100° 4 kt METAR EFHK 270520Z 10004KT 050V150 CAVOK 19/14 Q1025 NOSIG
07:50
V
18 °C 10 km+ - 090° 090° 4 kt METAR EFHK 270450Z 09004KT 070V130 CAVOK 18/14 Q1025 NOSIG
07:20
V
17 °C 10 km+ - 100° 100° 4 kt METAR EFHK 270420Z 10004KT CAVOK 17/14 Q1025 NOSIG
06:50
V
16 °C 10 km+ - 080° 080° 3 kt METAR EFHK 270350Z 08003KT 050V120 CAVOK 16/13 Q1025 NOSIG
06:20
V
15 °C 10 km+ - 080° 080° 3 kt METAR EFHK 270320Z 08003KT 060V140 CAVOK 15/13 Q1025 NOSIG
05:50
V
14 °C 10 km+ - 060° 060° 3 kt METAR EFHK 270250Z 06003KT CAVOK 14/13 Q1025 NOSIG
05:20
V
14 °C 10 km+ - 070° 070° 4 kt METAR EFHK 270220Z 07004KT 040V140 CAVOK 14/12 Q1025 NOSIG
04:50
V
13 °C 10 km+ - 070° 070° 3 kt METAR EFHK 270150Z 07003KT CAVOK 13/12 Q1025 NOSIG
04:20
V
13 °C 10 km+ - 070° 070° 3 kt METAR EFHK 270120Z 07003KT CAVOK 13/12 Q1025 NOSIG
03:50
V
13 °C 10 km+ - 070° 070° 4 kt METAR EFHK 270050Z 07004KT CAVOK 13/12 Q1026 NOSIG
03:20
V
13 °C 10 km+ - 060° 060° 5 kt METAR EFHK 270020Z 06005KT CAVOK 13/12 Q1026 NOSIG
02:50
V
12 °C 10 km+ - 050° 050° 3 kt METAR EFHK 262350Z 05003KT CAVOK 12/11 Q1026 NOSIG
02:20
V
13 °C 10 km+ - 070° 070° 4 kt METAR EFHK 262320Z 07004KT 040V100 CAVOK 13/12 Q1026 NOSIG
01:50
V
14 °C 10 km+ - Var Var 2 kt METAR EFHK 262250Z VRB02KT CAVOK 14/12 Q1026 NOSIG
01:20
V
14 °C 10 km+ - 040° 040° 3 kt METAR EFHK 262220Z 04003KT 360V090 CAVOK 14/12 Q1026 NOSIG
00:50
V
14 °C 10 km+ - 070° 070° 4 kt METAR EFHK 262150Z 07004KT 040V110 CAVOK 14/12 Q1026 NOSIG
00:20
V
14 °C 10 km+ - 090° 090° 3 kt METAR EFHK 262120Z 09003KT 030V130 CAVOK 14/12 Q1026 NOSIG

26 de mayo de 2024

Hora Código Tiempo Temp. Visibilidad Cielo nuboso Viento METAR/SPECI
23:50
V
17 °C 10 km+ - 090° 090° 4 kt METAR EFHK 262050Z 09004KT 060V120 CAVOK 17/12 Q1026 NOSIG
23:20
V
17 °C 10 km+ - 090° 090° 5 kt METAR EFHK 262020Z 09005KT CAVOK 17/13 Q1026 NOSIG
22:50
V
18 °C 10 km+ - 110° 110° 6 kt METAR EFHK 261950Z 11006KT CAVOK 18/13 Q1026 NOSIG
22:20
V
18 °C 10 km+ - 110° 110° 6 kt METAR EFHK 261920Z 11006KT CAVOK 18/13 Q1026 NOSIG
21:50
V
19 °C 10 km+ - 130° 130° 6 kt METAR EFHK 261850Z 13006KT CAVOK 19/13 Q1026 NOSIG
21:20
V
19 °C 10 km+ - 140° 140° 9 kt METAR EFHK 261820Z 14009KT CAVOK 19/13 Q1026 NOSIG
20:50
V
20 °C 10 km+ - 120° 120° 6 kt METAR EFHK 261750Z 12006KT CAVOK 20/13 Q1026 NOSIG
20:20
V
21 °C 10 km+ - 140° 140° 6 kt METAR EFHK 261720Z 14006KT 120V180 CAVOK 21/13 Q1026 NOSIG
19:50
V
21 °C 10 km+ - 120° 120° 7 kt METAR EFHK 261650Z 12007KT 9999 FEW040 21/13 Q1026 NOSIG
19:20
V
21 °C 10 km+ - 160° 160° 5 kt METAR EFHK 261620Z 16005KT 110V190 9999 FEW040 21/13 Q1026 NOSIG
18:50
V
21 °C 10 km+ - 120° 120° 7 kt METAR EFHK 261550Z 12007KT 090V180 9999 FEW040 21/13 Q1026 NOSIG
18:20
V
22 °C 10 km+ - 140° 140° 11 kt METAR EFHK 261520Z 14011KT 9999 FEW035 22/14 Q1026 NOSIG
17:50
V
23 °C 10 km+ - 130° 130° 9 kt METAR EFHK 261450Z 13009KT 110V170 9999 FEW035 23/14 Q1026 NOSIG
17:20
V
23 °C 10 km+ - 130° 130° 10 kt METAR EFHK 261420Z 13010KT 110V170 9999 VCSH FEW035 FEW040CB 23/14 Q1026 NOSIG
16:50
V
24 °C 10 km+ - 110° 110° 10 kt METAR EFHK 261350Z 11010KT 080V150 9999 VCTS FEW035 FEW040CB 24/14 Q1026 NOSIG
16:20
V
23 °C 10 km+ - 120° 120° 10 kt METAR EFHK 261320Z 12010KT 080V140 9999 VCTS FEW035 FEW040CB 23/13 Q1026 TEMPO TS
15:50
V
24 °C 10 km+ - 120° 120° 10 kt METAR EFHK 261250Z 12010KT 080V150 9999 VCTS FEW035 FEW040CB 24/15 Q1026 NOSIG
15:20
V
24 °C 10 km+ - 130° 130° 9 kt METAR EFHK 261220Z 13009KT 080V210 9999 VCTS FEW035 FEW040CB 24/14 Q1026 RETS TEMPO TS
14:50
V
25 °C 10 km+ - 120° 120° 11 kt METAR EFHK 261150Z 12011KT 100V160 9999 VCTS FEW035 FEW040CB 25/14 Q1026 TEMPO TS
14:20
V
24 °C 10 km+ - 130° 130° 9 kt METAR EFHK 261120Z 13009KT 110V170 9999 VCSH FEW030 FEW040CB 24/14 Q1027 TEMPO TS
13:50
V
24 °C 10 km+ - 140° 140° 10 kt METAR EFHK 261050Z 14010KT 110V170 9999 VCSH FEW035 FEW040CB 24/15 Q1027 TEMPO TS
13:20
V
23 °C 10 km+ - 140° 140° 9 kt METAR EFHK 261020Z 14009KT 110V180 9999 VCSH FEW035 FEW040CB 23/16 Q1027 TEMPO TS
12:50
V
24 °C 10 km+ - 150° 150° 7 kt METAR EFHK 260950Z 15007KT 100V180 9999 FEW033 FEW035TCU 24/16 Q1026 BECMG FEW040CB
12:20
V
23 °C 10 km+ - 150° 150° 8 kt METAR EFHK 260920Z 15008KT 9999 FEW033 FEW035TCU 23/16 Q1026 BECMG FEW040CB
11:50
V
23 °C 10 km+ - 160° 160° 10 kt METAR EFHK 260850Z 16010KT 140V200 9999 SCT033 FEW035TCU 23/15 Q1026 BECMG SCT035 FEW040CB
11:20
V
24 °C 10 km+ - Var Var 4 kt METAR EFHK 260820Z VRB04KT 9999 FEW031 24/15 Q1026 BECMG FEW040CB
10:50
V
23 °C 10 km+ - 110° 110° 5 kt METAR EFHK 260750Z 11005KT 070V150 9999 FEW030 23/16 Q1026 NOSIG
10:20
V
23 °C 10 km+ - Var Var 3 kt METAR EFHK 260720Z VRB03KT CAVOK 23/16 Q1026 NOSIG
09:50
V
22 °C 10 km+ - Var Var 2 kt METAR EFHK 260650Z VRB02KT CAVOK 22/15 Q1026 NOSIG
09:20
V
21 °C 10 km+ - Var Var 4 kt METAR EFHK 260620Z VRB04KT CAVOK 21/15 Q1026 NOSIG
08:50
V
20 °C 10 km+ - 070° 070° 3 kt METAR EFHK 260550Z 07003KT 020V130 CAVOK 20/15 Q1026 NOSIG
08:20
V
19 °C 10 km+ - 050° 050° 4 kt METAR EFHK 260520Z 05004KT 020V080 CAVOK 19/15 Q1026 NOSIG
07:50
V
18 °C 10 km+ - 050° 050° 5 kt METAR EFHK 260450Z 05005KT CAVOK 18/15 Q1026 NOSIG
07:20
V
17 °C 10 km+ - 020° 020° 7 kt METAR EFHK 260420Z 02007KT CAVOK 17/14 Q1026 NOSIG
06:50
V
16 °C 10 km+ - 360° 360° 3 kt METAR EFHK 260350Z 36003KT CAVOK 16/14 Q1026 NOSIG
06:20
V
15 °C 10 km+ - 340° 340° 5 kt METAR EFHK 260320Z 34005KT CAVOK 15/13 Q1026 NOSIG
05:50
V
15 °C 10 km+ - 350° 350° 7 kt METAR EFHK 260250Z 35007KT CAVOK 15/13 Q1026 NOSIG
05:20
V
14 °C 10 km+ - 350° 350° 5 kt METAR EFHK 260220Z 35005KT 320V050 CAVOK 14/13 Q1026 NOSIG
04:50
V
13 °C 10 km+ - Var Var 2 kt METAR EFHK 260150Z VRB02KT CAVOK 13/12 Q1026 NOSIG
04:20
V
14 °C 10 km+ - 300° 300° 3 kt METAR EFHK 260120Z 30003KT 270V330 CAVOK 14/13 Q1025 NOSIG
03:50
V
13 °C 10 km+ - 320° 320° 4 kt METAR EFHK 260050Z 32004KT CAVOK 13/12 Q1025 NOSIG
03:20
V
12 °C 10 km+ - 300° 300° 4 kt METAR EFHK 260020Z 30004KT 260V340 CAVOK 12/11 Q1025 NOSIG
02:50
V
14 °C 10 km+ - 260° 260° 3 kt METAR EFHK 252350Z 26003KT CAVOK 14/13 Q1025 NOSIG
02:20
V
13 °C 10 km+ - 280° 280° 4 kt METAR EFHK 252320Z 28004KT CAVOK 13/12 Q1025 NOSIG
01:50
V
14 °C 10 km+ - 270° 270° 2 kt METAR EFHK 252250Z 27002KT CAVOK 14/13 Q1025 NOSIG
01:20
V
14 °C 10 km+ - 250° 250° 5 kt METAR EFHK 252220Z 25005KT CAVOK 14/13 Q1025 NOSIG
00:50
V
15 °C 10 km+ - 240° 240° 6 kt METAR EFHK 252150Z 24006KT CAVOK 15/13 Q1025 NOSIG
00:20
V
15 °C 10 km+ - 210° 210° 5 kt METAR EFHK 252120Z 21005KT CAVOK 15/13 Q1025 NOSIG

25 de mayo de 2024

Hora Código Tiempo Temp. Visibilidad Cielo nuboso Viento METAR/SPECI
23:50
V
13 °C 10 km+ - Var Var 3 kt METAR EFHK 252050Z VRB03KT CAVOK 13/12 Q1024 NOSIG
23:20
V
14 °C 10 km+ - 040° 040° 4 kt METAR EFHK 252020Z 04004KT 320V100 CAVOK 14/14 Q1024 NOSIG
22:50
V
15 °C 10 km+ - 330° 330° 3 kt METAR EFHK 251950Z 33003KT 300V050 CAVOK 15/13 Q1024 NOSIG
22:20
V
16 °C 10 km+ - 350° 350° 5 kt METAR EFHK 251920Z 35005KT 330V030 CAVOK 16/14 Q1024 NOSIG
21:50
V
17 °C 10 km+ - 340° 340° 3 kt METAR EFHK 251850Z 34003KT CAVOK 17/14 Q1024 NOSIG
21:20
V
18 °C 10 km+ - 360° 360° 4 kt METAR EFHK 251820Z 36004KT 9999 FEW040 18/14 Q1024 NOSIG
20:50
V
19 °C 10 km+ - Var Var 2 kt METAR EFHK 251750Z VRB02KT 9999 FEW040 19/15 Q1024 NOSIG
20:20
V
19 °C 10 km+ - 290° 290° 7 kt METAR EFHK 251720Z 29007KT 9999 FEW040 19/15 Q1024 NOSIG
19:50
V
19 °C 10 km+ - 280° 280° 7 kt METAR EFHK 251650Z 28007KT 9999 FEW040 19/14 Q1024 NOSIG
19:20
V
21 °C 10 km+ - 260° 260° 8 kt METAR EFHK 251620Z 26008KT 9999 VCSH FEW040CB 21/15 Q1024 TEMPO FEW040
18:50
V
21 °C 10 km+ - 310° 310° 8 kt METAR EFHK 251550Z 31008KT 270V330 9999 FEW040CB 21/14 Q1024 NOSIG
18:20
V
22 °C 10 km+ - 320° 320° 7 kt METAR EFHK 251520Z 32007KT 290V360 9999 FEW040CB 22/15 Q1024 NOSIG
17:50
V
20 °C 10 km+ - 310° 310° 3 kt METAR EFHK 251450Z 31003KT 9999 -SHRA FEW040CB 20/16 Q1024 NOSIG
17:20
V
20 °C 10 km+ - Var Var 1 kt METAR EFHK 251420Z VRB01KT 9999 -SHRA FEW050CB 20/14 Q1024 BECMG 34010KT
16:50
V
20 °C 10 km+ - 300° 300° 9 kt METAR EFHK 251350Z 30009KT 270V330 9999 VCTS FEW050CB 20/14 Q1024 RETSRA TEMPO 01010KT
16:20
V
19 °C 10 km+ - 020° 020° 4 kt METAR EFHK 251320Z 02004KT 320V060 9999 TS FEW020 FEW050CB 19/15 Q1024 TEMPO 33010KT
15:50
V
21 °C 10 km+ - 240° 240° 8 kt METAR EFHK 251250Z 24008KT 9999 -TSRA FEW020 SCT050CB 21/15 Q1023 TEMPO 7000 TSRA
15:20
V
22 °C 10 km+ - 270° 270° 10 kt METAR EFHK 251220Z 27010KT 9999 -TSRA FEW030 SCT050CB 22/14 Q1023 TEMPO 4000 TSRA
14:50
V
25 °C 10 km+ - 200° 200° 10 kt METAR EFHK 251150Z 20010KT 9999 TS VCSH FEW030 FEW055CB 25/15 Q1023 TEMPO 7000 TSRA
14:20
V
25 °C 10 km+ - 200° 200° 11 kt METAR EFHK 251120Z 20011KT 9999 TS VCSH FEW030 SCT055CB 25/14 Q1023 TEMPO TSRA
13:50
V
24 °C 10 km+ - 210° 210° 9 kt METAR EFHK 251050Z 21009KT 9999 TS VCSH FEW035 SCT055CB 24/11 Q1023 TEMPO TSRA
13:20
V
27 °C 10 km+ - 290° 290° 5 kt METAR EFHK 251020Z 29005KT 240V020 9999 TS VCSH FEW055CB 27/13 Q1023 TEMPO TSRA
12:50
V
26 °C 10 km+ - 240° 240° 5 kt METAR EFHK 250950Z 24005KT 170V310 9999 FEW050TCU 26/12 Q1023 BECMG SCT050CB
12:20
V
27 °C 10 km+ - Var Var 3 kt METAR EFHK 250920Z VRB03KT 9999 FEW050TCU 27/13 Q1023 BECMG SCT050CB
11:50
V
26 °C 10 km+ - 210° 210° 6 kt METAR EFHK 250850Z 21006KT 130V250 9999 FEW048 26/14 Q1023 TEMPO SCT050TCU
11:20
V
26 °C 10 km+ - Var Var 3 kt METAR EFHK 250820Z VRB03KT 9999 FEW048 26/13 Q1023 NOSIG
10:50
V
25 °C 10 km+ - 220° 220° 3 kt METAR EFHK 250750Z 22003KT 180V270 CAVOK 25/13 Q1023 NOSIG
10:20
V
23 °C 10 km+ - 220° 220° 5 kt METAR EFHK 250720Z 22005KT 190V250 CAVOK 23/12 Q1023 NOSIG
09:50
V
23 °C 10 km+ - 210° 210° 5 kt METAR EFHK 250650Z 21005KT 180V240 CAVOK 23/14 Q1023 NOSIG
09:20
V
21 °C 10 km+ - 210° 210° 3 kt METAR EFHK 250620Z 21003KT 180V240 CAVOK 21/12 Q1023 NOSIG
08:50
V
21 °C 10 km+ - 230° 230° 3 kt METAR EFHK 250550Z 23003KT 190V270 CAVOK 21/13 Q1023 NOSIG
Cambiar esta información